Time;durP1;ratioP1;P1;durP2;ratioP2;P2;SDS_P1;SDS_P2;PMS_P1;PMS_P2;Temp;Humidity;BMP_temperature;BMP_pressure;BME280_temperature;BME280_humidity;BME280_pressure;Samples;Min_cycle;Max_cycle;Signal;HPM_P1;HPM_P2
2021/09/29 00:00:36;;;;;;;7.97;5.00;;;;;;;10.67;74.48;101472.53;1759610;81;20940;-61
2021/09/29 00:03:03;;;;;;;8.28;4.20;;;;;;;10.66;74.59;101472.20;1759545;81;21560;-62
2021/09/29 00:05:31;;;;;;;8.15;4.60;;;;;;;10.66;74.59;101472.20;1788479;80;20931;-61
2021/09/29 00:07:58;;;;;;;8.50;4.92;;;;;;;10.68;74.60;101470.67;1786473;80;21008;-60
2021/09/29 00:10:26;;;;;;;7.37;4.40;;;;;;;10.69;74.53;101465.63;1758778;81;20941;-60
2021/09/29 00:12:53;;;;;;;9.50;4.87;;;;;;;10.69;74.55;101468.31;1787205;80;21012;-59
2021/09/29 00:15:19;;;;;;;7.55;4.90;;;;;;;10.69;74.61;101468.31;1786964;80;21507;-60
2021/09/29 00:17:46;;;;;;;6.12;4.87;;;;;;;10.71;74.58;101470.80;1786536;80;21085;-60
2021/09/29 00:20:14;;;;;;;7.33;4.60;;;;;;;10.71;74.50;101464.10;1758887;81;20892;-61
2021/09/29 00:22:41;;;;;;;9.45;4.90;;;;;;;10.68;74.47;101470.67;1760226;81;20991;-61
2021/09/29 00:25:09;;;;;;;6.72;4.85;;;;;;;10.67;74.53;101468.51;1786441;80;20930;-62
2021/09/29 00:27:36;;;;;;;6.87;4.45;;;;;;;10.66;74.46;101462.00;1787116;79;21480;-62
2021/09/29 00:30:08;;;;;;;9.43;5.33;;;;;;;10.63;74.53;101473.08;1785561;78;21166;-61
2021/09/29 00:32:38;;;;;;;6.60;4.28;;;;;;;10.62;74.62;101472.27;1781878;79;21007;-63
2021/09/29 00:35:05;;;;;;;7.95;4.67;;;;;;;10.61;74.58;101473.27;1782569;80;21581;-61
2021/09/29 00:37:32;;;;;;;8.15;4.22;;;;;;;10.58;74.60;101470.98;1782491;80;22633;-61
2021/09/29 00:40:00;;;;;;;11.12;5.22;;;;;;;10.59;74.67;101471.83;1772412;81;20969;-60
2021/09/29 00:42:27;;;;;;;9.08;4.60;;;;;;;10.59;74.60;101470.48;1772441;81;21050;-61
2021/09/29 00:44:54;;;;;;;6.00;4.37;;;;;;;10.58;74.61;101465.61;1772091;80;21564;-61
2021/09/29 00:47:20;;;;;;;11.73;5.15;;;;;;;10.56;74.60;101463.64;1772057;81;20962;-61
2021/09/29 00:49:47;;;;;;;7.95;4.40;;;;;;;10.57;74.62;101461.78;1772310;80;20986;-60
2021/09/29 00:52:14;;;;;;;8.80;5.28;;;;;;;10.57;74.57;101465.31;1772214;81;20982;-62
2021/09/29 00:54:41;;;;;;;10.20;4.53;;;;;;;10.54;74.62;101470.22;1772507;80;21113;-61
2021/09/29 00:57:08;;;;;;;7.08;4.53;;;;;;;10.48;74.81;101465.95;1781971;80;20987;-62
2021/09/29 00:59:37;;;;;;;5.85;4.28;;;;;;;10.44;74.88;101466.00;1780811;80;20945;-62
2021/09/29 01:02:04;;;;;;;6.55;4.35;;;;;;;10.43;75.04;101467.53;1772436;79;21085;-62
2021/09/29 01:04:31;;;;;;;10.48;4.83;;;;;;;10.44;75.18;101467.87;1772180;81;20933;-60
2021/09/29 01:07:17;;;;;;;6.87;4.87;;;;;;;10.45;75.19;101466.34;1772082;81;21150;-61
2021/09/29 01:10:14;;;;;;;11.22;4.97;;;;;;;10.43;75.11;101464.34;1772561;81;20938;-60
2021/09/29 01:13:09;;;;;;;7.08;4.75;;;;;;;10.42;75.14;101469.37;1696081;84;20961;-62
2021/09/29 01:15:50;;;;;;;7.65;4.53;;;;;;;10.42;75.17;101471.23;1695817;84;21576;-61
2021/09/29 01:18:20;;;;;;;9.13;4.78;;;;;;;10.42;75.21;101473.91;1748626;81;20894;-61
2021/09/29 01:20:59;;;;;;;7.58;5.22;;;;;;;10.42;75.30;101476.59;1772276;81;21111;-60
2021/09/29 01:23:39;;;;;;;8.23;4.75;;;;;;;10.43;75.30;101478.27;1772037;81;20942;-63
2021/09/29 01:26:14;;;;;;;6.17;4.90;;;;;;;10.41;75.29;101473.09;1772203;81;21538;-62
2021/09/29 01:29:02;;;;;;;9.23;5.08;;;;;;;10.39;75.36;101476.97;1782035;80;21041;-63
2021/09/29 01:31:29;;;;;;;7.35;4.47;;;;;;;10.37;75.35;101483.05;1780459;80;21515;-63
2021/09/29 01:33:55;;;;;;;9.00;4.53;;;;;;;10.36;75.35;101484.05;1779103;80;21139;-60
2021/09/29 01:36:22;;;;;;;9.03;4.58;;;;;;;10.33;75.43;101487.45;1779315;80;20930;-61
2021/09/29 01:38:54;;;;;;;6.47;4.80;;;;;;;10.36;75.47;101484.05;1779168;80;21039;-61
2021/09/29 01:41:18;;;;;;;6.87;4.75;;;;;;;10.34;75.39;101482.38;1765534;81;21073;-61
2021/09/29 01:43:44;;;;;;;9.03;5.37;;;;;;;10.31;75.47;101485.42;1768941;81;21049;-61
2021/09/29 01:46:11;;;;;;;8.05;4.92;;;;;;;10.36;75.30;101482.20;1768978;81;21157;-62
2021/09/29 01:48:49;;;;;;;13.43;5.72;;;;;;;10.36;75.16;101484.05;1718561;81;20926;-63
2021/09/29 01:51:16;;;;;;;8.43;4.83;;;;;;;10.38;75.09;101494.06;1768660;81;20937;-61
2021/09/29 01:53:43;;;;;;;9.48;4.87;;;;;;;10.39;75.03;101492.53;1768802;81;20930;-62
2021/09/29 01:56:09;;;;;;;11.80;5.42;;;;;;;10.42;74.90;101489.99;1717138;81;21468;-62
2021/09/29 01:58:35;;;;;;;8.25;4.58;;;;;;;10.49;74.69;101492.23;1769075;81;21168;-61
2021/09/29 02:01:02;;;;;;;9.08;5.17;;;;;;;10.48;74.34;101495.93;1768821;81;20943;-60
2021/09/29 02:03:29;;;;;;;8.70;4.70;;;;;;;10.43;74.26;101497.02;1764570;81;20898;-60
2021/09/29 02:05:55;;;;;;;9.33;5.83;;;;;;;10.34;74.36;101497.13;1769156;81;21472;-61
2021/09/29 02:08:22;;;;;;;10.35;5.30;;;;;;;10.32;74.43;101492.45;1746270;81;21044;-62
2021/09/29 02:10:48;;;;;;;12.58;5.47;;;;;;;10.29;74.49;101493.31;1768958;81;21046;-61
2021/09/29 02:13:15;;;;;;;8.28;5.17;;;;;;;10.30;74.46;101492.30;1769031;81;20971;-61
2021/09/29 02:15:43;;;;;;;8.65;5.28;;;;;;;10.28;74.56;101499.20;1769062;79;20974;-63
2021/09/29 02:48:35;;;;;;;8.95;5.37;;;;;;;10.18;74.68;101529.48;1783239;79;21985;-61
2021/09/29 02:51:02;;;;;;;7.50;5.22;;;;;;;10.12;74.70;101524.36;1739222;81;20884;-61
2021/09/29 02:53:29;;;;;;;8.35;6.28;;;;;;;10.13;74.75;101530.56;1741765;81;21120;-61
2021/09/29 02:55:58;;;;;;;9.15;5.42;;;;;;;10.10;74.78;101534.93;1741856;81;20979;-61
2021/09/29 02:58:24;;;;;;;9.87;5.20;;;;;;;10.04;74.79;101523.62;1707813;83;20985;-61
2021/09/29 03:00:52;;;;;;;8.88;5.35;;;;;;;10.03;74.85;101524.14;1710125;83;20970;-61
2021/09/29 03:03:19;;;;;;;7.65;5.25;;;;;;;10.00;74.88;101527.20;1708178;83;20946;-60
2021/09/29 03:05:46;;;;;;;9.10;5.35;;;;;;;9.96;74.99;101528.58;1705494;83;21835;-61
2021/09/29 03:08:13;;;;;;;11.35;5.62;;;;;;;9.92;75.04;101520.59;1708523;83;20908;-61
2021/09/29 03:10:41;;;;;;;10.78;5.10;;;;;;;9.89;75.13;101526.31;1707465;83;20915;-60
2021/09/29 03:13:08;;;;;;;8.83;5.15;;;;;;;9.89;75.18;101531.67;1706541;83;20995;-63
2021/09/29 03:15:37;;;;;;;8.83;5.42;;;;;;;9.91;75.20;101525.13;1710230;83;21461;-60
2021/09/29 03:18:03;;;;;;;11.38;6.47;;;;;;;9.92;75.21;101529.96;1708564;83;21159;-60
2021/09/29 03:20:31;;;;;;;8.70;6.17;;;;;;;9.95;75.23;101534.45;1707282;83;20994;-61
2021/09/29 03:22:58;;;;;;;9.95;5.00;;;;;;;10.01;75.11;101535.53;1708471;83;21057;-64
2021/09/29 03:25:25;;;;;;;7.62;5.28;;;;;;;10.07;75.01;101542.86;1709225;83;21008;-64
2021/09/29 03:27:52;;;;;;;7.97;5.53;;;;;;;10.12;74.85;101547.12;1707960;83;20983;-63
2021/09/29 03:30:19;;;;;;;7.25;5.65;;;;;;;10.11;74.62;101542.78;1710421;83;21119;-64
2021/09/29 03:32:46;;;;;;;10.35;6.42;;;;;;;10.10;74.55;101545.65;1707934;83;20931;-61
2021/09/29 03:35:12;;;;;;;10.68;6.30;;;;;;;10.08;74.47;101546.36;1707387;83;20943;-61
2021/09/29 03:37:41;;;;;;;9.10;5.67;;;;;;;10.07;74.21;101545.53;1706427;83;20938;-61
2021/09/29 03:40:10;;;;;;;7.60;5.80;;;;;;;10.00;74.08;101552.13;1708685;83;20943;-61
2021/09/29 03:42:37;;;;;;;7.00;5.20;;;;;;;9.88;74.22;101547.41;1708205;83;21112;-61
2021/09/29 03:45:04;;;;;;;8.78;5.70;;;;;;;9.77;74.43;101558.91;1708410;83;20994;-60
2021/09/29 03:47:32;;;;;;;7.42;5.17;;;;;;;9.69;74.67;101566.19;1697661;83;21129;-60
2021/09/29 03:49:59;;;;;;;7.75;5.40;;;;;;;9.66;74.94;101564.73;1667591;85;21546;-61
2021/09/29 03:52:26;;;;;;;9.00;6.05;;;;;;;9.69;75.01;101570.20;1667840;85;22025;-60
2021/09/29 03:54:52;;;;;;;8.55;5.58;;;;;;;9.73;74.95;101567.00;1666148;85;21167;-60
2021/09/29 03:57:19;;;;;;;7.08;5.40;;;;;;;9.76;74.81;101570.66;1685134;84;20936;-63
2021/09/29 03:59:47;;;;;;;9.28;5.45;;;;;;;9.72;74.76;101572.03;1680169;84;21035;-61
2021/09/29 04:02:13;;;;;;;8.30;5.30;;;;;;;9.72;74.82;101574.70;1681424;84;21449;-61
2021/09/29 04:04:40;;;;;;;10.93;5.92;;;;;;;9.74;74.88;101577.20;1680865;84;20940;-61
2021/09/29 04:07:06;;;;;;;11.10;6.33;;;;;;;9.75;74.77;101574.34;1679995;84;21153;-61
2021/09/29 04:09:33;;;;;;;11.43;6.15;;;;;;;9.72;74.63;101577.38;1679114;84;21007;-61
2021/09/29 04:11:59;;;;;;;10.35;5.67;;;;;;;9.69;74.64;101577.75;1679544;84;21656;-61
2021/09/29 04:14:26;;;;;;;11.00;6.12;;;;;;;9.68;74.58;101588.65;1680339;84;21040;-62
2021/09/29 04:16:52;;;;;;;12.23;6.12;;;;;;;9.64;74.52;101594.38;1680806;84;20943;-61
2021/09/29 04:19:20;;;;;;;8.00;5.55;;;;;;;9.59;74.62;101593.25;1680323;84;21196;-61
2021/09/29 04:21:46;;;;;;;12.05;6.40;;;;;;;9.56;74.65;101593.61;1680901;84;21055;-61
2021/09/29 04:24:13;;;;;;;9.10;6.20;;;;;;;9.51;74.75;101600.86;1677676;84;21624;-61
2021/09/29 04:26:40;;;;;;;9.55;5.83;;;;;;;9.46;74.87;101600.03;1679304;84;20971;-62
2021/09/29 04:29:07;;;;;;;7.00;5.05;;;;;;;9.43;74.95;101602.25;1680695;84;21565;-63
2021/09/29 04:31:34;;;;;;;7.33;4.58;;;;;;;9.39;74.87;101607.63;1678500;84;21819;-61
2021/09/29 04:34:00;;;;;;;7.87;4.60;;;;;;;9.29;74.86;101608.72;1678916;84;20924;-63
2021/09/29 04:36:26;;;;;;;5.30;4.10;;;;;;;9.22;75.09;101612.30;1680276;84;21015;-61
2021/09/29 04:38:53;;;;;;;10.13;4.65;;;;;;;9.22;75.31;101613.12;1679802;84;20979;-63
2021/09/29 04:41:19;;;;;;;6.05;4.10;;;;;;;9.23;75.32;101617.95;1680385;84;20975;-60
2021/09/29 04:43:46;;;;;;;11.95;4.70;;;;;;;9.22;75.33;101618.98;1677519;84;21205;-62
2021/09/29 04:46:12;;;;;;;5.65;4.10;;;;;;;9.20;75.25;101623.17;1684121;84;20876;-64
2021/09/29 04:48:38;;;;;;;5.65;4.08;;;;;;;9.17;75.36;101626.21;1680926;83;21581;-67
2021/09/29 04:51:05;;;;;;;12.75;4.70;;;;;;;9.12;75.43;101621.89;1680298;84;20983;-69
2021/09/29 04:53:32;;;;;;;9.13;4.80;;;;;;;9.07;75.59;101621.09;1680455;84;20967;-67
2021/09/29 04:56:00;;;;;;;7.47;4.53;;;;;;;9.03;75.73;101622.95;1682486;83;21564;-67
2021/09/29 04:58:27;;;;;;;6.60;4.03;;;;;;;9.01;75.80;101625.81;1678806;84;21564;-66
2021/09/29 05:00:54;;;;;;;8.50;3.87;;;;;;;9.02;76.30;101626.12;1677872;84;20960;-62
2021/09/29 05:03:20;;;;;;;7.25;4.55;;;;;;;9.07;76.23;101629.11;1681319;84;20916;-68
2021/09/29 05:05:47;;;;;;;9.10;4.83;;;;;;;9.10;76.01;101624.74;1679969;84;20956;-69
2021/09/29 05:08:21;;;;;;;9.60;4.78;;;;;;;9.12;75.96;101626.72;1676995;83;21094;-68
2021/09/29 05:11:04;;;;;;;11.12;4.55;;;;;;;9.15;75.89;101628.22;1654241;84;21007;-68
2021/09/29 05:13:33;;;;;;;12.40;8.80;;;;;;;9.15;75.51;101636.24;1680918;84;21011;-69
2021/09/29 05:16:00;;;;;;;9.05;7.25;;;;;;;9.07;75.47;101626.44;1677563;84;21032;-69
2021/09/29 05:18:29;;;;;;;9.48;6.12;;;;;;;9.02;75.63;101627.97;1677035;84;20986;-70
2021/09/29 05:20:56;;;;;;;7.60;5.28;;;;;;;8.98;75.63;101629.33;1681162;84;21588;-68
2021/09/29 05:23:22;;;;;;;8.20;5.65;;;;;;;8.97;75.70;101632.52;1678108;84;20964;-70
2021/09/29 05:25:50;;;;;;;9.35;5.45;;;;;;;8.95;75.80;101629.17;1679821;84;20971;-68
2021/09/29 05:28:22;;;;;;;8.00;5.03;;;;;;;8.96;75.89;101640.20;1677183;84;20987;-68
2021/09/29 05:30:50;;;;;;;8.83;4.78;;;;;;;8.97;75.68;101633.86;1665644;84;21144;-69
2021/09/29 05:33:17;;;;;;;12.40;5.10;;;;;;;8.94;75.88;101632.88;1682162;84;21109;-70
2021/09/29 05:35:44;;;;;;;9.93;4.92;;;;;;;8.93;75.83;101637.37;1728023;82;20948;-69
2021/09/29 05:38:10;;;;;;;12.43;5.45;;;;;;;8.89;75.93;101639.23;1725482;82;21573;-67
2021/09/29 05:40:37;;;;;;;11.57;5.35;;;;;;;8.81;76.16;101637.45;1727633;82;21003;-69
2021/09/29 05:43:04;;;;;;;7.83;5.92;;;;;;;8.79;76.38;101636.81;1697390;82;20888;-69
2021/09/29 05:45:30;;;;;;;12.63;5.90;;;;;;;8.83;76.52;101645.30;1727546;82;21118;-67
2021/09/29 05:47:57;;;;;;;8.90;6.03;;;;;;;8.87;76.41;101646.11;1727802;82;21461;-66
2021/09/29 05:50:24;;;;;;;9.20;5.58;;;;;;;8.89;76.31;101638.75;1733367;82;21044;-70
2021/09/29 05:52:50;;;;;;;15.70;7.05;;;;;;;8.90;76.19;101643.07;1730930;82;21006;-68
2021/09/29 05:55:18;;;;;;;11.60;6.40;;;;;;;8.93;76.43;101644.05;1730777;82;20975;-69
2021/09/29 05:57:46;;;;;;;8.53;5.73;;;;;;;9.06;76.27;101647.50;1734331;82;21135;-67
2021/09/29 06:00:14;;;;;;;10.90;6.10;;;;;;;9.13;75.65;101647.64;1733611;82;20999;-67
2021/09/29 06:02:40;;;;;;;8.45;4.55;;;;;;;9.10;75.59;101649.33;1733552;82;21485;-67
2021/09/29 06:05:09;;;;;;;9.05;5.90;;;;;;;9.12;75.81;101648.13;1736031;82;21042;-67
2021/09/29 06:07:37;;;;;;;8.88;5.55;;;;;;;9.22;75.71;101647.91;1732232;82;21087;-66
2021/09/29 06:10:06;;;;;;;9.45;4.92;;;;;;;9.29;75.45;101652.05;1732717;82;21907;-67
2021/09/29 06:12:33;;;;;;;9.78;6.28;;;;;;;9.31;75.17;101649.20;1731184;82;22076;-66
2021/09/29 06:14:59;;;;;;;11.95;5.40;;;;;;;9.31;75.23;101654.55;1733325;82;21034;-62
2021/09/29 06:17:43;;;;;;;8.78;5.62;;;;;;;9.30;74.96;101652.36;1732275;82;21035;-64
2021/09/29 06:20:11;;;;;;;8.25;5.40;;;;;;;9.30;74.87;101653.69;1733305;82;20983;-64
2021/09/29 06:22:38;;;;;;;;;;;;;;;9.35;74.89;101663.38;1733670;82;21766;-64
2021/09/29 06:25:07;;;;;;;7.75;5.05;;;;;;;9.49;74.79;101656.39;1733500;82;20152;-63
2021/09/29 06:27:34;;;;;;;9.15;5.60;;;;;;;9.69;74.34;101654.55;1731051;82;20991;-65
2021/09/29 06:30:01;;;;;;;10.30;5.35;;;;;;;9.88;73.72;101659.91;1734205;82;20987;-64
2021/09/29 06:32:28;;;;;;;13.40;5.95;;;;;;;10.05;72.96;101662.75;1732094;82;20939;-62
2021/09/29 06:34:54;;;;;;;10.30;6.30;;;;;;;10.12;72.35;101656.99;1732909;82;21212;-63
2021/09/29 06:37:21;;;;;;;10.28;5.50;;;;;;;10.22;72.47;101657.22;1730001;82;21062;-62
2021/09/29 06:39:47;;;;;;;7.25;5.03;;;;;;;10.44;71.76;101650.16;1735300;82;20936;-63
2021/09/29 06:42:14;;;;;;;8.00;5.20;;;;;;;10.69;71.44;101661.41;1733181;82;20980;-63
2021/09/29 06:44:40;;;;;;;8.05;5.17;;;;;;;10.96;70.33;101654.49;1729592;82;21482;-63
2021/09/29 06:47:07;;;;;;;12.58;5.33;;;;;;;11.30;69.47;101652.98;1732856;82;21105;-64
2021/09/29 06:49:36;;;;;;;;;;;;;;;11.74;68.30;101655.14;1723100;82;20952;-62
2021/09/29 06:52:04;;;;;;;7.15;5.17;;;;;;;12.01;66.55;101656.19;1719875;82;20112;-62
2021/09/29 06:54:31;;;;;;;9.33;5.20;;;;;;;12.19;66.60;101654.85;1719755;82;21078;-63
2021/09/29 06:56:58;;;;;;;12.58;5.28;;;;;;;12.56;66.34;101653.63;1718212;82;21761;-62
2021/09/29 06:59:24;;;;;;;9.90;5.45;;;;;;;12.86;63.56;101660.05;1719520;82;21126;-63
2021/09/29 07:01:52;;;;;;;9.08;5.50;;;;;;;12.80;63.48;101662.20;1717745;82;20928;-63
2021/09/29 07:04:19;;;;;;;8.03;5.15;;;;;;;12.76;63.57;101651.02;1725562;81;20974;-63
2021/09/29 07:06:46;;;;;;;8.55;5.97;;;;;;;12.74;62.32;101663.83;1717201;82;21637;-63
2021/09/29 07:09:12;;;;;;;7.47;5.37;;;;;;;12.56;63.05;101657.66;1718959;82;20924;-63
2021/09/29 07:11:39;;;;;;;8.85;5.45;;;;;;;12.38;63.17;101670.79;1719381;82;21905;-63
2021/09/29 07:14:07;;;;;;;7.53;5.37;;;;;;;12.09;63.48;101669.48;1719790;82;20916;-62
2021/09/29 07:16:35;;;;;;;9.48;4.95;;;;;;;11.73;64.40;101670.93;1716712;82;20909;-63
2021/09/29 07:19:03;;;;;;;8.08;5.47;;;;;;;11.58;65.51;101670.49;1718015;82;20996;-65
2021/09/29 07:21:31;;;;;;;13.93;5.17;;;;;;;11.52;65.87;101671.27;1716658;81;20984;-63
2021/09/29 07:23:58;;;;;;;7.78;5.17;;;;;;;11.50;66.41;101673.33;1719452;82;21161;-63
2021/09/29 07:26:25;;;;;;;8.10;5.60;;;;;;;11.49;66.00;101672.18;1720126;82;20964;-63
2021/09/29 07:28:52;;;;;;;9.30;5.15;;;;;;;11.35;66.53;101676.08;1720780;82;20952;-64
2021/09/29 07:31:18;;;;;;;7.40;4.70;;;;;;;11.21;67.01;101672.41;1718801;82;21486;-63
2021/09/29 07:33:45;;;;;;;8.35;5.17;;;;;;;11.17;67.56;101679.70;1719590;82;20971;-63
2021/09/29 07:36:12;;;;;;;7.55;5.28;;;;;;;11.14;67.48;101680.90;1719558;82;21169;-63
2021/09/29 07:38:40;;;;;;;6.92;5.10;;;;;;;11.04;67.71;101674.52;1716573;82;20893;-63
2021/09/29 07:41:07;;;;;;;8.08;5.30;;;;;;;11.03;68.17;101677.39;1719648;82;20988;-63
2021/09/29 07:43:33;;;;;;;6.70;5.03;;;;;;;11.06;67.79;101678.35;1718744;82;20948;-63
2021/09/29 07:46:00;;;;;;;11.03;4.83;;;;;;;10.98;68.22;101677.11;1720188;82;21003;-64
2021/09/29 07:48:26;;;;;;;11.03;4.83;;;;;;;10.93;68.49;101683.05;1721567;82;21131;-64
2021/09/29 07:50:54;;;;;;;6.95;5.00;;;;;;;10.94;68.78;101682.52;1732639;82;20947;-65
2021/09/29 07:53:24;;;;;;;7.05;4.90;;;;;;;11.02;68.72;101686.45;1732680;82;20931;-63
2021/09/29 07:55:49;;;;;;;6.67;4.80;;;;;;;11.08;68.31;101687.55;1733316;82;26951;-62
2021/09/29 07:58:16;;;;;;;7.83;5.40;;;;;;;11.07;68.44;101688.56;1732580;82;21038;-63
2021/09/29 08:00:42;;;;;;;7.03;4.70;;;;;;;11.05;68.33;101683.39;1730347;82;23354;-64
2021/09/29 08:03:10;;;;;;;7.27;5.00;;;;;;;11.01;68.43;101696.36;1734274;82;20951;-65
2021/09/29 08:05:36;;;;;;;7.08;5.33;;;;;;;10.99;68.39;101706.44;1733084;82;21514;-63
2021/09/29 08:08:04;;;;;;;7.62;5.05;;;;;;;10.98;68.14;101702.11;1729696;82;21486;-63
2021/09/29 08:10:33;;;;;;;7.70;5.33;;;;;;;10.95;68.27;101694.93;1730710;82;21422;-63
2021/09/29 08:13:02;;;;;;;10.10;6.62;;;;;;;10.99;68.31;101701.59;1732250;82;21461;-64
2021/09/29 08:15:30;;;;;;;9.35;5.65;;;;;;;10.98;67.90;101705.28;1734721;82;21051;-64
2021/09/29 08:17:57;;;;;;;8.90;5.87;;;;;;;10.87;68.08;101708.77;1732346;82;21524;-63
2021/09/29 08:20:27;;;;;;;6.65;5.05;;;;;;;10.75;68.57;101705.41;1733504;82;20884;-64
2021/09/29 08:23:02;;;;;;;6.60;5.42;;;;;;;10.75;68.85;101706.25;1732258;82;20952;-64
2021/09/29 08:25:40;;;;;;;7.42;5.12;;;;;;;10.74;68.97;101705.10;1734780;82;21137;-64
2021/09/29 08:35:59;;;;;;;7.62;6.03;;;;;;;11.02;68.76;101700.69;1736624;82;21027;-65
2021/09/29 08:46:01;;;;;;;8.60;5.62;;;;;;;10.99;67.76;101693.02;1733380;82;21090;-63
2021/09/29 08:48:31;;;;;;;9.00;5.73;;;;;;;10.99;68.14;101689.52;1731389;82;21584;-65
2021/09/29 09:17:37;;;;;;;10.75;6.37;;;;;;;11.91;66.46;101689.25;1694055;82;21967;-64
2021/09/29 09:20:19;;;;;;;8.25;6.03;;;;;;;11.94;65.49;101694.80;1735101;82;20941;-64
2021/09/29 09:22:51;;;;;;;9.23;6.17;;;;;;;11.87;65.37;101693.38;1731436;82;21070;-63
2021/09/29 09:25:38;;;;;;;9.20;5.72;;;;;;;11.85;65.71;101686.86;1733555;82;20935;-63
2021/09/29 09:28:10;;;;;;;8.45;5.83;;;;;;;11.97;65.47;101693.05;1715097;82;21074;-64
2021/09/29 09:30:37;;;;;;;12.80;6.92;;;;;;;12.04;64.48;101688.07;1732964;82;21315;-64
2021/09/29 09:33:04;;;;;;;11.83;6.35;;;;;;;12.05;63.55;101685.68;1732291;82;20935;-64
2021/09/29 09:35:47;;;;;;;9.73;6.08;;;;;;;11.94;63.71;101693.45;1730855;82;20904;-64
2021/09/29 09:38:18;;;;;;;8.75;5.83;;;;;;;11.89;64.34;101695.34;1734474;82;20996;-62
2021/09/29 09:40:44;;;;;;;10.35;7.22;;;;;;;11.95;64.26;101695.94;1732693;82;21004;-63
2021/09/29 09:43:12;;;;;;;8.48;6.22;;;;;;;11.99;63.79;101690.50;1733573;82;21132;-64
2021/09/29 09:53:26;;;;;;;13.22;8.28;;;;;;;12.11;63.13;101696.69;1721389;82;21034;-64
2021/09/29 09:59:30;;;;;;;10.08;6.50;;;;;;;11.84;64.10;101699.97;1722228;82;20893;-65
2021/09/29 10:05:42;;;;;;;11.55;7.37;;;;;;;11.42;65.29;101705.66;1712174;82;21003;-64
2021/09/29 10:12:01;;;;;;;12.45;7.12;;;;;;;11.01;66.13;101708.44;1720898;82;20905;-64
2021/09/29 10:30:39;;;;;;;16.10;7.70;;;;;;;10.73;67.56;101711.47;1719153;82;21007;-64
2021/09/29 10:36:59;;;;;;;12.15;7.42;;;;;;;10.76;67.41;101702.56;1719744;82;21581;-64
2021/09/29 10:46:33;;;;;;;12.93;7.12;;;;;;;10.85;67.16;101702.77;1720426;82;21070;-63
2021/09/29 11:28:07;;;;;;;8.80;6.67;;;;;;;11.29;63.35;101675.51;1717985;82;21075;-64
2021/09/29 11:30:52;;;;;;;25.37;7.67;;;;;;;11.33;63.16;101678.11;1718337;82;20972;-63
2021/09/29 11:33:25;;;;;;;8.63;6.08;;;;;;;11.43;62.84;101676.98;1718597;82;20937;-66
2021/09/29 11:49:49;;;;;;;8.35;5.50;;;;;;;11.47;61.22;101671.03;1677514;84;21054;-65
2021/09/29 12:08:41;;;;;;;8.43;5.65;;;;;;;11.55;61.39;101668.72;1680176;84;21075;-64
2021/09/29 12:11:13;;;;;;;10.80;5.70;;;;;;;11.51;60.96;101669.62;1679108;84;21517;-64
2021/09/29 12:13:55;;;;;;;7.05;5.25;;;;;;;11.47;61.01;101667.00;1680421;83;21560;-64
2021/09/29 12:16:33;;;;;;;14.38;5.40;;;;;;;11.40;59.69;101664.77;1679714;84;21055;-64
2021/09/29 12:19:08;;;;;;;7.60;4.92;;;;;;;11.24;59.73;101656.97;1682424;83;21489;-65
2021/09/29 12:24:36;;;;;;;9.00;5.47;;;;;;;11.08;60.44;101668.77;1681761;84;20999;-64
2021/09/29 12:27:04;;;;;;;9.50;5.70;;;;;;;11.02;60.01;101672.52;1675540;84;20920;-64
2021/09/29 12:29:37;;;;;;;7.30;5.85;;;;;;;10.96;60.18;101673.80;1681091;84;20924;-65
2021/09/29 12:35:32;;;;;;;8.95;5.65;;;;;;;10.93;60.39;101666.12;1730923;82;20981;-64
2021/09/29 12:37:59;;;;;;;7.72;5.03;;;;;;;10.92;60.20;101673.84;1723164;82;20924;-63
2021/09/29 12:40:30;;;;;;;8.48;5.20;;;;;;;10.89;60.23;101671.02;1726912;82;21548;-64
2021/09/29 12:43:06;;;;;;;9.90;6.08;;;;;;;10.86;60.08;101670.91;1726028;82;21548;-64
2021/09/29 12:45:47;;;;;;;11.20;5.80;;;;;;;10.86;60.18;101670.91;1714295;82;21066;-64
2021/09/29 12:48:16;;;;;;;13.10;6.42;;;;;;;10.84;60.58;101671.59;1724337;82;21134;-64
2021/09/29 12:50:55;;;;;;;9.10;5.70;;;;;;;10.87;61.00;101667.19;1728828;82;21529;-67
2021/09/29 12:53:37;;;;;;;9.38;5.42;;;;;;;10.92;61.04;101669.30;1731705;82;20967;-65
2021/09/29 12:56:10;;;;;;;7.80;5.20;;;;;;;10.95;60.86;101671.60;1733151;81;21410;-63
2021/09/29 12:58:33;;;;;;;13.28;6.25;;;;;;;10.96;60.59;101674.62;1729533;82;21014;-64
2021/09/29 13:01:00;;;;;;;15.53;5.67;;;;;;;10.94;60.45;101672.65;1733186;82;21770;-64
2021/09/29 13:03:27;;;;;;;8.03;5.60;;;;;;;10.90;60.77;101670.02;1730407;82;20982;-65
2021/09/29 13:05:55;;;;;;;10.98;6.30;;;;;;;10.90;60.69;101667.85;1732573;82;20939;-67
2021/09/29 13:08:22;;;;;;;9.70;5.50;;;;;;;10.88;60.97;101676.09;1731325;82;21050;-64
2021/09/29 13:10:48;;;;;;;12.03;6.00;;;;;;;10.89;61.28;101673.70;1733364;82;21026;-65
2021/09/29 13:13:15;;;;;;;8.13;5.35;;;;;;;10.92;60.84;101672.51;1730379;82;21486;-65
2021/09/29 13:15:46;;;;;;;9.53;6.12;;;;;;;10.91;60.99;101674.86;1733351;82;20905;-64
2021/09/29 13:18:35;;;;;;;8.00;5.47;;;;;;;10.92;61.02;101667.14;1731736;82;20988;-65
2021/09/29 13:21:08;;;;;;;10.13;6.25;;;;;;;10.95;61.05;101665.42;1732219;82;21557;-64
2021/09/29 13:23:40;;;;;;;7.92;5.72;;;;;;;10.95;61.24;101661.39;1733153;82;21523;-64
2021/09/29 13:26:31;;;;;;;7.50;5.00;;;;;;;10.95;60.79;101666.76;1725996;82;22261;-65
2021/09/29 13:36:58;;;;;;;10.63;6.08;;;;;;;10.87;59.29;101669.05;1736839;80;21012;-64
2021/09/29 13:39:26;;;;;;;8.08;5.47;;;;;;;10.85;59.54;101667.05;1735587;82;21144;-67
2021/09/29 13:41:53;;;;;;;10.93;5.53;;;;;;;10.85;59.41;101673.75;1731889;82;20990;-64
2021/09/29 13:44:23;;;;;;;7.00;5.05;;;;;;;10.81;59.45;101668.47;1734305;82;20978;-66
2021/09/29 13:46:50;;;;;;;8.53;4.90;;;;;;;10.80;59.61;101671.64;1736515;82;20967;-63
2021/09/29 13:49:16;;;;;;;7.12;5.05;;;;;;;10.80;59.64;101671.64;1730525;82;21573;-68
2021/09/29 13:51:46;;;;;;;9.63;5.92;;;;;;;10.83;59.37;101672.60;1720692;82;20936;-61
2021/09/29 13:54:18;;;;;;;11.23;5.10;;;;;;;10.87;59.13;101670.39;1715125;82;20964;-59
2021/09/29 13:56:49;;;;;;;9.70;5.78;;;;;;;10.90;59.40;101673.22;1717787;82;21068;-59
2021/09/29 13:59:23;;;;;;;9.58;5.78;;;;;;;10.94;59.57;101673.98;1717705;82;21032;-61
2021/09/29 14:28:54;;;;;;;8.48;5.03;;;;;;;10.86;59.66;101692.38;1722934;82;20961;-58
2021/09/29 14:31:19;;;;;;;10.58;5.47;;;;;;;10.86;59.91;101694.20;1721948;82;21767;-60
2021/09/29 14:33:49;;;;;;;10.98;6.22;;;;;;;10.86;59.91;101692.38;1717319;82;21007;-59
2021/09/29 14:36:16;;;;;;;9.58;5.75;;;;;;;10.86;59.17;101701.77;1716185;82;20869;-58
2021/09/29 14:38:45;;;;;;;12.15;5.45;;;;;;;10.84;58.94;101697.59;1720086;82;21008;-59
2021/09/29 14:41:12;;;;;;;;;;;;;;;10.80;59.02;101699.80;1722803;82;21498;-59
2021/09/29 14:43:38;;;;;;;10.13;5.65;;;;;;;10.80;59.27;101701.14;1718109;82;22306;-59
2021/09/29 14:46:07;;;;;;;8.85;5.55;;;;;;;10.78;59.20;101699.70;1717682;82;20936;-60
2021/09/29 14:48:34;;;;;;;14.30;6.10;;;;;;;10.79;58.96;101700.84;1720874;82;20913;-58
2021/09/29 14:51:06;;;;;;;11.43;5.55;;;;;;;10.81;58.88;101706.02;1724995;82;21005;-58
2021/09/29 14:53:29;;;;;;;7.42;5.30;;;;;;;10.82;58.73;101707.17;1733354;82;21038;-60
2021/09/29 14:55:57;;;;;;;10.00;5.17;;;;;;;10.83;58.85;101709.34;1733593;82;21133;-60
2021/09/29 14:58:25;;;;;;;7.43;4.97;;;;;;;10.84;58.56;101711.83;1732891;82;20962;-59
2021/09/29 15:00:53;;;;;;;10.35;5.10;;;;;;;10.82;58.64;101713.03;1734183;82;20947;-60
2021/09/29 15:03:22;;;;;;;7.37;5.33;;;;;;;10.81;57.93;101710.87;1731237;82;21054;-59
2021/09/29 15:05:49;;;;;;;7.87;4.60;;;;;;;10.79;57.77;101708.89;1733526;82;20991;-60
2021/09/29 15:08:17;;;;;;;8.80;5.10;;;;;;;10.77;57.44;101711.43;1730237;82;21159;-60
2021/09/29 15:10:44;;;;;;;6.50;4.37;;;;;;;10.75;57.33;101716.98;1734559;82;20991;-61
2021/09/29 15:13:13;;;;;;;7.53;5.08;;;;;;;10.74;56.75;101716.66;1732359;82;21006;-60
2021/09/29 15:15:54;;;;;;;8.83;5.60;;;;;;;10.73;56.58;101714.98;1733267;81;20975;-57
2021/09/29 15:18:26;;;;;;;7.72;5.00;;;;;;;10.71;57.79;101719.71;1732236;82;21409;-59
2021/09/29 15:21:20;;;;;;;9.03;5.58;;;;;;;10.68;58.10;101720.08;1733647;82;21142;-59
2021/09/29 15:23:38;;;;;;;;;;;;;;;10.68;58.37;101715.55;1724897;82;23049;-60